Time;durP1;ratioP1;P1;durP2;ratioP2;P2;SDS_P1;SDS_P2;PMS_P1;PMS_P2;Temp;Humidity;BMP_temperature;BMP_pressure;BME280_temperature;BME280_humidity;BME280_pressure;Samples;Min_cycle;Max_cycle;Signal;HPM_P1;HPM_P2
2023/06/17 00:03:22;;;;;;;4.93;2.10;;;30.80;41.30;;;;;;10451847;28;20080;-33
2023/06/17 00:08:24;;;;;;;1.83;1.63;;;30.70;41.30;;;;;;10453288;28;20136;-32
2023/06/17 00:13:26;;;;;;;2.20;1.88;;;30.70;41.50;;;;;;10449032;28;20136;-36
2023/06/17 00:18:32;;;;;;;1.88;1.50;;;30.60;41.60;;;;;;10453297;28;20045;-36
2023/06/17 00:23:34;;;;;;;2.50;1.70;;;30.50;41.60;;;;;;10465299;28;20421;-36
2023/06/17 00:28:36;;;;;;;5.20;1.90;;;30.50;41.70;;;;;;10462414;28;20084;-35
2023/06/17 00:33:39;;;;;;;5.45;1.90;;;30.50;41.80;;;;;;10461098;28;20113;-35
2023/06/17 00:38:41;;;;;;;2.92;2.00;;;30.40;42.00;;;;;;10453150;28;20072;-32
2023/06/17 00:43:43;;;;;;;2.55;1.85;;;30.30;42.10;;;;;;10452311;28;20111;-34
2023/06/17 00:48:46;;;;;;;3.35;1.83;;;30.30;42.10;;;;;;10458912;28;20168;-32
2023/06/17 00:53:48;;;;;;;2.70;1.92;;;30.20;42.90;;;;;;10457950;28;20057;-37
2023/06/17 00:58:51;;;;;;;2.92;1.80;;;30.20;42.40;;;;;;10450546;28;20084;-33
2023/06/17 01:03:55;;;;;;;2.70;1.65;;;30.10;42.50;;;;;;10448113;28;20056;-35
2023/06/17 01:09:02;;;;;;;7.45;1.98;;;30.10;42.70;;;;;;10453227;28;20064;-32
2023/06/17 01:14:05;;;;;;;2.42;2.10;;;30.00;42.80;;;;;;10451055;28;20064;-33
2023/06/17 01:19:18;;;;;;;2.65;1.52;;;30.00;43.00;;;;;;10445823;28;21996;-32
2023/06/17 01:24:26;;;;;;;2.78;2.05;;;30.00;43.00;;;;;;10489914;28;20063;-34
2023/06/17 01:29:30;;;;;;;2.30;2.05;;;29.90;43.10;;;;;;10500378;28;20421;-34
2023/06/17 01:34:37;;;;;;;2.55;2.10;;;29.90;43.20;;;;;;10500589;28;20104;-32
2023/06/17 01:39:45;;;;;;;3.40;1.60;;;29.90;43.40;;;;;;10490237;28;20116;-34
2023/06/17 01:44:48;;;;;;;2.65;1.80;;;29.80;43.50;;;;;;10489718;28;20079;-34
2023/06/17 01:49:50;;;;;;;2.50;1.80;;;29.80;43.60;;;;;;10490772;28;20087;-35
2023/06/17 01:54:54;;;;;;;2.00;1.80;;;29.70;43.60;;;;;;10493415;28;20626;-32
2023/06/17 01:59:56;;;;;;;2.88;1.92;;;29.70;43.70;;;;;;10476108;28;20062;-33
2023/06/17 02:04:58;;;;;;;2.15;1.75;;;29.70;43.80;;;;;;10487119;28;20057;-34
2023/06/17 02:10:03;;;;;;;4.38;1.98;;;29.60;43.90;;;;;;10490304;28;20075;-37
2023/06/17 02:15:06;;;;;;;2.25;1.63;;;29.60;44.00;;;;;;10499497;28;20055;-36
2023/06/17 02:20:09;;;;;;;2.20;1.70;;;29.50;44.00;;;;;;10492179;28;20063;-32
2023/06/17 02:25:12;;;;;;;3.20;2.00;;;29.50;44.20;;;;;;10492064;28;20054;-35
2023/06/17 02:30:14;;;;;;;2.28;2.08;;;29.50;44.20;;;;;;10492699;28;20419;-32
2023/06/17 02:35:16;;;;;;;2.78;1.95;;;29.40;44.30;;;;;;10493209;28;20119;-33
2023/06/17 02:40:20;;;;;;;1.83;1.48;;;29.40;44.60;;;;;;10490918;28;20500;-32
2023/06/17 02:45:21;;;;;;;3.92;1.77;;;29.40;44.50;;;;;;10489948;28;20078;-35
2023/06/17 02:50:24;;;;;;;3.35;2.33;;;29.30;44.50;;;;;;10486861;28;20544;-32
2023/06/17 02:55:27;;;;;;;2.58;1.80;;;29.30;44.60;;;;;;10497303;28;20040;-34
2023/06/17 03:15:32;;;;;;;2.50;2.05;;;29.10;44.40;;;;;;10508859;27;20135;-32
2023/06/17 03:20:34;;;;;;;3.28;1.77;;;29.10;44.80;;;;;;10483627;28;20127;-34
2023/06/17 03:25:36;;;;;;;4.07;1.83;;;29.10;44.90;;;;;;10484085;28;20401;-32
2023/06/17 03:30:40;;;;;;;4.43;1.83;;;29.00;44.90;;;;;;10476252;28;20065;-37
2023/06/17 03:35:42;;;;;;;2.40;2.00;;;29.00;45.00;;;;;;10483218;28;20414;-36
2023/06/17 03:40:44;;;;;;;2.53;1.95;;;29.00;45.10;;;;;;10483572;28;20087;-35
2023/06/17 03:45:47;;;;;;;2.08;1.70;;;28.90;45.00;;;;;;10483170;28;20072;-32
2023/06/17 03:50:52;;;;;;;3.92;2.03;;;28.90;45.10;;;;;;10483430;28;20543;-35
2023/06/17 03:55:54;;;;;;;2.17;1.92;;;28.80;45.10;;;;;;10484108;28;20553;-32
2023/06/17 04:00:57;;;;;;;3.28;1.80;;;28.90;45.20;;;;;;10477113;28;20075;-32
2023/06/17 04:05:59;;;;;;;2.78;1.63;;;28.80;45.10;;;;;;10481963;28;20454;-35
2023/06/17 04:11:01;;;;;;;1.85;1.75;;;28.80;45.20;;;;;;10482499;28;20136;-33
2023/06/17 04:16:04;;;;;;;1.90;1.65;;;28.80;45.30;;;;;;10482222;28;20136;-37
2023/06/17 04:21:06;;;;;;;2.80;2.10;;;28.70;45.20;;;;;;10481481;28;20065;-35
2023/06/17 04:26:12;;;;;;;2.90;2.08;;;28.70;45.20;;;;;;10458490;28;20121;-33
2023/06/17 04:31:16;;;;;;;3.20;2.20;;;28.70;45.30;;;;;;10453172;28;20040;-32
2023/06/17 04:36:18;;;;;;;3.15;2.10;;;28.70;45.30;;;;;;10452918;28;20073;-37
2023/06/17 04:41:20;;;;;;;3.22;1.73;;;28.70;45.40;;;;;;10454012;28;20053;-39
2023/06/17 04:46:24;;;;;;;2.58;2.17;;;28.70;45.40;;;;;;10462760;28;20053;-34
2023/06/17 04:51:26;;;;;;;4.03;2.10;;;28.70;45.40;;;;;;10453172;28;20454;-34
2023/06/17 04:56:28;;;;;;;1.75;1.65;;;28.70;45.50;;;;;;10445184;28;20045;-32
2023/06/17 05:01:31;;;;;;;2.30;1.98;;;28.60;45.50;;;;;;10452753;28;20045;-35
2023/06/17 05:06:33;;;;;;;3.00;2.10;;;28.60;45.60;;;;;;10452938;28;20132;-36
2023/06/17 05:11:35;;;;;;;2.55;1.95;;;28.60;45.60;;;;;;10451733;28;20111;-33
2023/06/17 05:16:38;;;;;;;3.40;1.92;;;28.60;45.70;;;;;;10451548;28;20149;-33
2023/06/17 05:21:40;;;;;;;2.00;1.80;;;28.70;45.80;;;;;;10445185;28;20689;-34
2023/06/17 05:26:42;;;;;;;2.30;2.08;;;28.70;45.90;;;;;;10455352;28;20048;-32
2023/06/17 05:31:48;;;;;;;3.65;2.20;;;28.70;46.00;;;;;;10450457;28;20073;-32
2023/06/17 05:36:50;;;;;;;5.03;2.30;;;28.60;46.20;;;;;;10449197;28;20135;-32
2023/06/17 05:41:52;;;;;;;4.93;2.65;;;28.60;46.20;;;;;;10450360;28;20080;-32
2023/06/17 05:46:55;;;;;;;2.60;1.75;;;28.70;46.40;;;;;;10450332;28;20087;-32
2023/06/17 05:51:57;;;;;;;4.43;2.22;;;28.70;46.50;;;;;;10449701;28;20358;-32
2023/06/17 05:56:59;;;;;;;2.13;1.92;;;28.70;46.50;;;;;;10450357;28;20043;-33
2023/06/17 06:02:05;;;;;;;2.60;1.88;;;28.70;46.50;;;;;;10449585;28;20044;-33
2023/06/17 06:07:07;;;;;;;2.22;1.90;;;28.70;46.40;;;;;;10450428;28;20552;-35
2023/06/17 06:12:12;;;;;;;3.28;2.17;;;28.70;46.40;;;;;;10449601;28;20063;-40
2023/06/17 06:17:17;;;;;;;2.03;1.63;;;28.70;46.90;;;;;;10448859;28;20041;-40
2023/06/17 06:22:19;;;;;;;3.60;2.20;;;28.70;46.10;;;;;;10449010;28;20072;-34
2023/06/17 06:27:21;;;;;;;3.97;2.17;;;28.70;46.00;;;;;;10439594;28;20120;-33
2023/06/17 06:32:27;;;;;;;6.13;2.45;;;28.70;45.90;;;;;;10439489;28;20053;-30
2023/06/17 06:37:28;;;;;;;4.88;2.42;;;28.70;45.80;;;;;;10443303;28;20413;-31
2023/06/17 06:42:30;;;;;;;6.03;2.50;;;28.70;45.80;;;;;;10447961;28;20140;-35
2023/06/17 06:47:35;;;;;;;3.42;2.47;;;28.70;45.70;;;;;;10437660;28;20630;-34
2023/06/17 06:52:37;;;;;;;2.97;2.30;;;28.70;45.60;;;;;;10433208;28;20072;-36
2023/06/17 06:57:38;;;;;;;5.65;2.47;;;28.70;45.40;;;;;;10440821;28;20045;-34
2023/06/17 07:02:43;;;;;;;3.20;2.50;;;28.70;45.40;;;;;;10444501;28;20059;-36
2023/06/17 07:07:45;;;;;;;5.07;2.38;;;28.70;45.40;;;;;;10446362;28;20045;-32
2023/06/17 07:12:47;;;;;;;2.95;2.45;;;28.70;45.20;;;;;;10441312;28;20056;-35
2023/06/17 07:17:51;;;;;;;2.42;2.22;;;28.80;45.20;;;;;;10446049;28;20056;-32
2023/06/17 07:22:52;;;;;;;4.57;2.35;;;28.80;45.10;;;;;;10446264;28;20132;-33
2023/06/17 07:27:56;;;;;;;4.28;2.60;;;28.80;45.00;;;;;;10437719;28;20551;-33
2023/06/17 07:32:59;;;;;;;4.68;2.75;;;28.80;44.80;;;;;;10443071;28;20057;-34
2023/06/17 07:38:01;;;;;;;4.05;2.30;;;28.80;44.70;;;;;;10438253;28;20433;-34
2023/06/17 07:43:03;;;;;;;4.47;2.58;;;28.80;44.60;;;;;;10452928;28;20156;-32
2023/06/17 07:48:07;;;;;;;3.92;2.25;;;28.80;44.60;;;;;;10439622;28;20056;-42
2023/06/17 07:53:09;;;;;;;3.30;2.40;;;28.80;44.40;;;;;;10446110;28;20088;-35
2023/06/17 07:58:10;;;;;;;3.67;2.33;;;29.00;45.10;;;;;;10445305;28;20547;-36
2023/06/17 08:03:14;;;;;;;5.10;2.70;;;28.90;44.30;;;;;;10452494;28;20076;-32
2023/06/17 08:08:16;;;;;;;2.60;2.28;;;28.90;44.20;;;;;;10448252;28;20144;-29
2023/06/17 08:13:17;;;;;;;2.83;2.50;;;28.90;44.20;;;;;;10355101;28;23947;-34
2023/06/17 08:18:21;;;;;;;4.75;2.28;;;28.90;44.20;;;;;;10411055;28;20061;-36
2023/06/17 08:23:23;;;;;;;3.72;2.40;;;29.00;44.30;;;;;;10411384;28;20054;-37
2023/06/17 08:28:25;;;;;;;5.47;2.58;;;29.00;44.90;;;;;;10329896;28;20055;-32
2023/06/17 08:33:29;;;;;;;4.32;2.80;;;28.60;44.80;;;;;;10408794;28;20053;-32
2023/06/17 08:38:31;;;;;;;3.25;2.80;;;26.90;46.10;;;;;;10415057;28;20084;-33
2023/06/17 08:43:36;;;;;;;3.95;2.45;;;26.20;48.20;;;;;;10412174;28;20455;-34
2023/06/17 08:48:41;;;;;;;6.28;2.70;;;27.20;48.00;;;;;;10323830;28;20060;-39
2023/06/17 08:53:45;;;;;;;5.03;2.90;;;26.20;46.90;;;;;;10415753;28;20085;-34
2023/06/17 08:58:47;;;;;;;3.00;2.70;;;25.90;44.40;;;;;;10412819;28;20490;-38
2023/06/17 09:03:52;;;;;;;3.72;3.15;;;26.20;45.80;;;;;;10419264;28;20050;-35
2023/06/17 09:08:55;;;;;;;4.82;3.20;;;26.10;47.70;;;;;;10404122;28;20138;-32
2023/06/17 09:14:01;;;;;;;4.88;3.17;;;26.30;43.40;;;;;;10417945;28;20096;-34
2023/06/17 09:19:08;;;;;;;3.55;3.13;;;26.10;45.50;;;;;;10403189;28;20045;-34
2023/06/17 09:24:10;;;;;;;6.35;2.97;;;25.90;48.70;;;;;;10422617;28;20144;-35
2023/06/17 09:29:14;;;;;;;8.07;3.67;;;26.70;45.50;;;;;;10429535;28;20057;-34
2023/06/17 09:34:18;;;;;;;5.35;3.45;;;26.60;46.60;;;;;;10401698;28;20045;-33
2023/06/17 09:39:28;;;;;;;6.05;3.47;;;27.70;45.60;;;;;;10416659;28;20501;-33
2023/06/17 09:44:31;;;;;;;4.82;3.80;;;28.00;43.90;;;;;;10416398;28;20129;-32
2023/06/17 09:49:35;;;;;;;7.75;3.92;;;28.30;47.10;;;;;;10408027;28;20488;-37
2023/06/17 09:54:37;;;;;;;7.47;3.63;;;26.20;49.20;;;;;;10410790;28;20053;-33
2023/06/17 09:59:39;;;;;;;6.93;3.97;;;25.70;45.60;;;;;;10412929;28;20107;-30
2023/06/17 10:04:44;;;;;;;5.07;3.20;;;26.60;49.50;;;;;;10404692;28;20584;-34
2023/06/17 10:09:47;;;;;;;6.13;3.50;;;27.90;46.80;;;;;;10421151;28;20124;-30
2023/06/17 10:14:50;;;;;;;7.15;3.03;;;28.00;45.50;;;;;;10407787;28;20131;-33
2023/06/17 10:19:54;;;;;;;3.45;2.92;;;28.30;44.30;;;;;;10407706;28;20053;-30
2023/06/17 10:24:56;;;;;;;5.03;3.30;;;28.40;41.80;;;;;;10417187;28;20049;-32
2023/06/17 10:29:59;;;;;;;4.13;2.95;;;28.70;40.70;;;;;;10400313;28;20056;-30
2023/06/17 10:35:13;;;;;;;5.22;3.58;;;28.70;40.80;;;;;;10411411;28;20057;-31
2023/06/17 10:40:22;;;;;;;6.22;3.15;;;27.00;50.20;;;;;;10414999;28;20045;-33
2023/06/17 10:45:25;;;;;;;4.65;3.15;;;28.60;47.10;;;;;;10415685;28;20115;-35
2023/06/17 10:50:28;;;;;;;4.15;2.80;;;28.10;43.60;;;;;;10421173;28;20065;-34
2023/06/17 10:55:30;;;;;;;4.03;3.00;;;27.00;39.60;;;;;;10414632;28;20052;-37
2023/06/17 11:00:33;;;;;;;3.92;2.95;;;29.20;46.70;;;;;;10427603;28;20037;-34
2023/06/17 11:05:36;;;;;;;6.03;3.10;;;29.50;44.00;;;;;;10411421;28;20045;-36
2023/06/17 11:10:38;;;;;;;2.65;2.45;;;29.50;46.30;;;;;;10397576;28;20465;-32
2023/06/17 11:15:40;;;;;;;5.45;3.15;;;29.80;45.80;;;;;;10404050;28;20144;-35
2023/06/17 11:20:43;;;;;;;4.25;2.83;;;27.40;43.30;;;;;;10402215;28;20151;-32
2023/06/17 11:25:45;;;;;;;5.30;3.00;;;29.20;47.40;;;;;;10403267;28;20049;-34
2023/06/17 11:30:47;;;;;;;7.60;2.13;;;29.60;44.70;;;;;;10409491;28;20058;-39
2023/06/17 11:35:51;;;;;;;3.47;2.58;;;27.60;37.30;;;;;;10420016;28;20563;-34
2023/06/17 11:40:55;;;;;;;3.50;2.75;;;28.10;45.50;;;;;;10413571;28;20045;-37
2023/06/17 11:45:58;;;;;;;2.80;2.40;;;29.60;45.10;;;;;;10428571;28;20072;-38
2023/06/17 11:51:01;;;;;;;4.88;2.42;;;28.50;46.20;;;;;;10425273;28;20486;-35
2023/06/17 11:56:06;;;;;;;2.95;2.28;;;29.30;37.30;;;;;;10423558;28;20051;-40
2023/06/17 12:01:09;;;;;;;3.28;2.55;;;28.50;46.90;;;;;;10423581;28;20048;-40
2023/06/17 12:06:18;;;;;;;2.55;2.10;;;29.00;40.30;;;;;;10417359;28;20168;-37
2023/06/17 12:11:25;;;;;;;6.63;2.17;;;29.90;46.70;;;;;;10408384;28;20053;-39
2023/06/17 12:16:30;;;;;;;2.78;2.08;;;29.80;44.70;;;;;;10411464;28;20052;-38
2023/06/17 12:21:34;;;;;;;4.15;2.80;;;29.30;46.70;;;;;;10411786;28;20045;-39
2023/06/17 12:26:36;;;;;;;2.85;2.08;;;30.10;44.60;;;;;;10414874;28;20124;-37
2023/06/17 12:31:38;;;;;;;4.40;2.03;;;29.80;47.40;;;;;;10414910;28;20107;-37
2023/06/17 12:36:41;;;;;;;2.40;1.92;;;30.00;48.20;;;;;;10413996;28;20466;-39
2023/06/17 12:41:43;;;;;;;4.45;2.47;;;31.20;45.60;;;;;;10415853;28;20526;-39
2023/06/17 12:46:45;;;;;;;2.72;1.75;;;29.70;44.00;;;;;;10409388;28;20045;-39
2023/06/17 12:51:48;;;;;;;2.13;1.90;;;30.70;45.80;;;;;;10420181;28;20050;-39
2023/06/17 12:56:50;;;;;;;7.15;2.72;;;30.90;45.30;;;;;;10412181;28;20111;-38
2023/06/17 13:01:52;;;;;;;3.20;2.88;;;30.80;36.70;;;;;;10409604;28;20077;-37
2023/06/17 13:06:56;;;;;;;3.60;1.80;;;29.50;40.40;;;;;;10408252;28;20156;-36
2023/06/17 13:11:58;;;;;;;2.10;1.90;;;31.00;45.70;;;;;;10403653;28;20084;-38
2023/06/17 13:17:00;;;;;;;2.70;1.70;;;31.80;45.70;;;;;;10405781;28;20490;-41
2023/06/17 13:22:03;;;;;;;3.78;2.13;;;31.80;45.80;;;;;;10406590;28;20763;-35
2023/06/17 13:27:06;;;;;;;1.92;1.83;;;31.00;46.50;;;;;;10403326;28;20107;-39
2023/06/17 13:32:08;;;;;;;2.65;1.85;;;30.80;44.80;;;;;;10410720;28;20045;-39
2023/06/17 13:37:11;;;;;;;3.85;1.90;;;30.80;46.50;;;;;;10416191;28;20132;-35
2023/06/17 13:42:13;;;;;;;2.63;1.33;;;32.30;45.90;;;;;;10409405;28;20045;-40
2023/06/17 13:47:15;;;;;;;2.05;1.58;;;32.40;45.90;;;;;;10408729;28;20049;-35
2023/06/17 13:52:18;;;;;;;2.13;1.80;;;32.70;46.10;;;;;;10411665;28;20049;-36
2023/06/17 13:57:20;;;;;;;1.50;1.40;;;32.20;45.80;;;;;;10411735;28;20130;-40
2023/06/17 14:02:22;;;;;;;2.28;1.58;;;32.40;46.70;;;;;;10422098;28;20077;-36
2023/06/17 14:07:25;;;;;;;5.03;1.75;;;32.60;45.00;;;;;;10411214;28;20132;-37
2023/06/17 14:12:27;;;;;;;2.80;1.85;;;32.40;46.10;;;;;;10414330;28;20359;-40
2023/06/17 14:17:29;;;;;;;2.28;1.67;;;32.50;45.80;;;;;;10403252;28;20184;-36
2023/06/17 14:22:32;;;;;;;3.45;1.73;;;32.50;46.50;;;;;;10406689;28;20520;-36
2023/06/17 14:27:38;;;;;;;1.67;1.58;;;32.70;44.20;;;;;;10415345;28;20450;-38
2023/06/17 14:32:42;;;;;;;8.05;2.45;;;33.20;45.80;;;;;;10405165;28;20128;-37
2023/06/17 14:37:48;;;;;;;1.83;1.42;;;33.00;37.60;;;;;;10412678;28;20053;-36
2023/06/17 14:42:50;;;;;;;2.33;1.98;;;32.70;46.40;;;;;;10412243;28;20084;-38
2023/06/17 14:47:52;;;;;;;3.83;2.28;;;32.90;43.70;;;;;;10405697;28;20099;-38
2023/06/17 14:52:55;;;;;;;5.13;2.20;;;32.00;35.10;;;;;;10410246;28;20556;-38
2023/06/17 14:57:59;;;;;;;5.35;2.40;;;32.80;39.40;;;;;;10405250;28;20077;-41
2023/06/17 15:03:07;;;;;;;9.35;2.17;;;33.20;35.20;;;;;;10416819;28;20561;-39
2023/06/17 15:08:10;;;;;;;3.28;1.65;;;33.80;43.80;;;;;;10404916;28;20069;-41
2023/06/17 15:13:14;;;;;;;2.75;2.17;;;34.10;44.30;;;;;;10407055;28;20129;-43
2023/06/17 15:18:16;;;;;;;2.55;1.98;;;33.50;44.50;;;;;;10396997;28;20104;-42
2023/06/17 15:23:22;;;;;;;2.03;1.80;;;33.30;46.20;;;;;;10407369;28;20041;-40
2023/06/17 15:28:24;;;;;;;5.25;2.80;;;34.20;45.10;;;;;;10405082;28;20045;-43
2023/06/17 15:33:26;;;;;;;3.08;1.77;;;34.50;37.40;;;;;;10405727;28;20088;-36
2023/06/17 15:38:29;;;;;;;5.05;2.58;;;34.30;44.50;;;;;;10405430;28;20058;-39
2023/06/17 15:43:31;;;;;;;4.13;2.05;;;34.40;43.50;;;;;;10418235;28;20411;-38
2023/06/17 15:48:34;;;;;;;4.72;2.40;;;34.40;44.10;;;;;;10406668;28;20065;-41
2023/06/17 15:53:37;;;;;;;3.08;2.40;;;33.50;43.10;;;;;;10313798;28;20171;-38
2023/06/17 15:58:39;;;;;;;3.53;1.90;;;33.80;44.00;;;;;;10404288;28;20075;-35
2023/06/17 16:03:41;;;;;;;4.03;2.83;;;34.10;45.50;;;;;;10422247;28;20131;-38
2023/06/17 16:08:45;;;;;;;2.80;1.80;;;34.40;44.20;;;;;;10415466;28;20454;-34
2023/06/17 16:13:47;;;;;;;2.22;1.90;;;34.40;43.90;;;;;;10407304;28;20053;-37
2023/06/17 16:18:49;;;;;;;2.45;2.22;;;33.90;44.80;;;;;;10407774;28;20150;-34
2023/06/17 16:23:52;;;;;;;3.42;2.22;;;34.40;42.00;;;;;;10409821;28;20081;-40
2023/06/17 16:28:54;;;;;;;3.97;2.72;;;34.30;44.30;;;;;;10420580;28;20073;-37
2023/06/17 16:33:55;;;;;;;4.85;2.25;;;34.50;43.50;;;;;;10408548;28;20061;-39
2023/06/17 16:38:59;;;;;;;3.40;2.47;;;34.40;44.60;;;;;;10402744;28;20076;-34
2023/06/17 16:44:02;;;;;;;4.65;2.55;;;34.20;37.90;;;;;;10407143;28;20516;-39
2023/06/17 16:49:04;;;;;;;7.60;2.67;;;34.20;44.50;;;;;;10420167;28;20050;-38
2023/06/17 16:54:08;;;;;;;4.60;2.35;;;34.20;45.60;;;;;;10412348;28;20049;-37
2023/06/17 16:59:10;;;;;;;5.30;2.50;;;34.20;43.90;;;;;;10416248;28;20045;-39
2023/06/17 17:04:13;;;;;;;4.13;2.47;;;34.40;44.20;;;;;;10409471;28;20049;-34
2023/06/17 17:09:17;;;;;;;7.45;3.20;;;34.00;44.60;;;;;;10410682;28;20468;-40
2023/06/17 17:14:19;;;;;;;4.40;2.78;;;34.20;43.90;;;;;;10407381;28;20144;-33
2023/06/17 17:19:21;;;;;;;6.50;3.58;;;34.20;44.00;;;;;;10413034;28;20064;-38
2023/06/17 17:24:24;;;;;;;3.60;2.90;;;34.20;43.30;;;;;;10417867;28;20469;-37
2023/06/17 17:29:26;;;;;;;7.07;3.30;;;34.10;44.60;;;;;;10417123;28;20054;-31
2023/06/17 17:34:30;;;;;;;5.85;2.63;;;34.20;43.70;;;;;;10418509;28;20433;-34
2023/06/17 17:39:34;;;;;;;6.97;3.55;;;34.00;43.70;;;;;;10414742;28;20049;-37
2023/06/17 17:44:35;;;;;;;3.75;3.17;;;33.90;44.30;;;;;;10415851;28;20064;-41
2023/06/17 17:49:38;;;;;;;8.07;3.50;;;33.90;43.50;;;;;;10422062;28;20056;-34
2023/06/17 17:54:41;;;;;;;5.95;3.35;;;33.70;43.90;;;;;;10407478;28;20045;-39
2023/06/17 17:59:43;;;;;;;4.70;3.22;;;33.60;43.90;;;;;;10404206;28;20050;-40
2023/06/17 18:04:45;;;;;;;6.38;3.63;;;33.50;43.80;;;;;;10409791;28;20073;-39
2023/06/17 18:09:48;;;;;;;5.28;3.55;;;33.70;43.60;;;;;;10406905;28;20140;-40
2023/06/17 18:14:50;;;;;;;5.22;3.50;;;33.70;43.30;;;;;;10405990;28;20719;-35
2023/06/17 18:19:52;;;;;;;3.88;3.13;;;33.60;43.50;;;;;;10404852;28;20421;-36
2023/06/17 18:24:55;;;;;;;4.35;2.97;;;33.60;43.90;;;;;;10407148;28;20052;-35
2023/06/17 18:29:57;;;;;;;4.50;2.97;;;33.50;43.60;;;;;;10418044;28;20057;-37
2023/06/17 18:34:59;;;;;;;4.00;2.95;;;33.50;43.60;;;;;;10405874;28;20041;-33
2023/06/17 18:40:02;;;;;;;3.70;3.08;;;33.40;43.70;;;;;;10404914;28;20049;-38
2023/06/17 18:45:08;;;;;;;3.00;2.70;;;33.40;43.70;;;;;;10415716;28;20124;-35
2023/06/17 18:50:10;;;;;;;4.22;3.03;;;33.30;43.50;;;;;;10401723;28;20045;-40
2023/06/17 18:55:13;;;;;;;4.65;3.22;;;33.20;43.50;;;;;;10405587;28;20220;-33
2023/06/17 19:00:17;;;;;;;5.38;3.28;;;33.10;43.30;;;;;;10396909;28;20068;-39
2023/06/17 19:05:19;;;;;;;4.68;2.88;;;33.20;43.60;;;;;;10405396;28;20037;-42
2023/06/17 19:10:22;;;;;;;5.70;3.00;;;33.10;43.30;;;;;;10403452;28;20399;-33
2023/06/17 19:15:25;;;;;;;3.92;3.08;;;33.00;43.40;;;;;;10403170;28;20041;-36
2023/06/17 19:20:26;;;;;;;4.05;2.95;;;33.00;43.20;;;;;;10405609;28;20056;-37
2023/06/17 19:25:29;;;;;;;5.65;2.85;;;33.00;43.40;;;;;;10404894;28;20069;-35
2023/06/17 19:30:31;;;;;;;3.22;2.92;;;33.00;43.00;;;;;;10404798;28;20080;-33
2023/06/17 19:35:33;;;;;;;3.70;2.47;;;32.90;43.10;;;;;;10403779;28;20104;-40
2023/06/17 19:40:36;;;;;;;5.45;2.80;;;32.90;43.00;;;;;;10403939;28;20171;-36
2023/06/17 19:45:40;;;;;;;4.05;2.80;;;32.80;43.10;;;;;;10407548;28;20443;-37
2023/06/17 19:50:42;;;;;;;4.85;2.60;;;32.70;42.80;;;;;;10398466;28;20050;-34
2023/06/17 19:55:45;;;;;;;2.90;2.08;;;32.60;42.90;;;;;;10408466;28;20045;-38
2023/06/17 20:00:47;;;;;;;4.15;2.70;;;32.50;42.80;;;;;;10411149;28;20145;-36
2023/06/17 20:05:49;;;;;;;3.97;2.45;;;32.50;42.80;;;;;;10410453;28;20077;-39
2023/06/17 20:10:52;;;;;;;5.15;2.10;;;32.50;42.80;;;;;;10409456;28;20141;-34
2023/06/17 20:15:54;;;;;;;7.43;2.28;;;32.40;42.80;;;;;;10408913;28;20049;-37
2023/06/17 20:20:56;;;;;;;2.40;2.05;;;32.40;42.70;;;;;;10412646;28;20115;-37
2023/06/17 20:25:59;;;;;;;4.25;2.42;;;32.30;42.60;;;;;;10409922;28;20136;-33
2023/06/17 20:31:01;;;;;;;4.22;2.55;;;32.20;42.60;;;;;;10409861;28;20746;-38
2023/06/17 20:36:03;;;;;;;2.95;2.30;;;32.20;43.20;;;;;;10411375;28;20115;-41
2023/06/17 20:41:06;;;;;;;4.47;2.22;;;32.20;43.20;;;;;;10409141;28;20099;-40
2023/06/17 20:46:08;;;;;;;7.97;2.65;;;32.30;43.20;;;;;;10413988;28;20103;-34
2023/06/17 20:51:10;;;;;;;3.50;2.15;;;32.30;43.20;;;;;;10407405;28;20149;-37
2023/06/17 20:56:13;;;;;;;3.45;2.60;;;32.20;43.40;;;;;;10410969;28;20092;-36
2023/06/17 21:01:17;;;;;;;2.45;2.20;;;32.30;43.30;;;;;;10410522;28;20077;-39
2023/06/17 21:06:19;;;;;;;2.55;2.30;;;32.20;43.30;;;;;;10409882;28;20057;-39
2023/06/17 21:11:22;;;;;;;2.78;2.30;;;32.20;43.20;;;;;;10409146;28;20379;-40
2023/06/17 21:16:24;;;;;;;2.38;1.95;;;32.20;43.50;;;;;;10316967;28;20053;-40
2023/06/17 21:21:26;;;;;;;4.07;2.60;;;32.10;43.30;;;;;;10403414;28;20060;-36
2023/06/17 21:26:29;;;;;;;2.92;2.22;;;32.20;43.40;;;;;;10399238;28;20045;-37
2023/06/17 21:31:31;;;;;;;9.07;2.30;;;32.20;43.50;;;;;;10414869;28;20052;-37
2023/06/17 21:36:33;;;;;;;3.47;2.22;;;32.10;43.60;;;;;;10405053;28;20087;-39
2023/06/17 21:41:36;;;;;;;5.05;2.35;;;32.10;43.70;;;;;;10405205;28;20049;-39
2023/06/17 21:46:38;;;;;;;3.70;2.45;;;32.00;43.60;;;;;;10383943;28;20485;-42
2023/06/17 21:51:40;;;;;;;3.22;2.40;;;32.10;43.70;;;;;;10406641;28;20687;-41
2023/06/17 21:56:43;;;;;;;3.72;2.42;;;32.00;43.80;;;;;;10410837;28;20067;-36
2023/06/17 22:01:45;;;;;;;4.35;2.70;;;31.90;43.80;;;;;;10418358;28;20094;-40
2023/06/17 22:06:47;;;;;;;5.07;2.60;;;31.90;43.90;;;;;;10417068;28;20054;-39
2023/06/17 22:11:52;;;;;;;4.53;2.63;;;31.90;44.50;;;;;;10416466;28;20099;-36
2023/06/17 22:16:54;;;;;;;3.65;2.60;;;31.90;44.00;;;;;;10413717;28;20049;-36
2023/06/17 22:21:56;;;;;;;2.95;2.47;;;31.90;44.00;;;;;;10421347;28;20128;-31
2023/06/17 22:26:59;;;;;;;2.92;2.47;;;31.80;44.10;;;;;;10414418;28;20503;-36
2023/06/17 22:32:01;;;;;;;5.22;2.97;;;31.80;44.10;;;;;;10413813;28;20072;-37
2023/06/17 22:37:04;;;;;;;3.97;2.63;;;31.80;44.20;;;;;;10410502;28;20494;-37
2023/06/17 22:42:07;;;;;;;3.08;2.78;;;31.70;44.20;;;;;;10399913;28;20128;-37
2023/06/17 22:47:09;;;;;;;3.25;2.95;;;31.80;44.30;;;;;;10405169;28;20136;-33
2023/06/17 22:52:11;;;;;;;3.65;2.58;;;31.70;44.30;;;;;;10406236;28;20104;-35
2023/06/17 22:57:14;;;;;;;4.70;2.45;;;31.60;44.50;;;;;;10410570;28;20099;-34
2023/06/17 23:02:16;;;;;;;2.83;2.22;;;31.60;44.50;;;;;;10404798;28;20041;-30
2023/06/17 23:07:18;;;;;;;3.97;2.70;;;31.60;44.60;;;;;;10403542;28;20583;-33
2023/06/17 23:12:21;;;;;;;3.20;2.70;;;31.50;44.60;;;;;;10403602;28;20092;-35
2023/06/17 23:17:24;;;;;;;3.42;2.67;;;31.50;44.70;;;;;;10403637;28;20141;-35
2023/06/17 23:22:27;;;;;;;4.93;2.85;;;31.50;44.70;;;;;;10403960;28;20462;-31
2023/06/17 23:27:31;;;;;;;3.35;2.60;;;31.50;44.80;;;;;;10405976;28;20049;-32
2023/06/17 23:32:33;;;;;;;5.00;3.08;;;31.50;44.90;;;;;;10422146;28;20467;-33
2023/06/17 23:37:35;;;;;;;3.35;3.00;;;31.40;44.90;;;;;;10415195;28;20449;-31
2023/06/17 23:42:38;;;;;;;3.00;2.80;;;31.40;45.00;;;;;;10427244;28;20045;-36
2023/06/17 23:47:40;;;;;;;3.70;2.90;;;31.30;45.10;;;;;;10411923;28;20132;-34
2023/06/17 23:52:42;;;;;;;3.17;2.80;;;31.30;45.10;;;;;;10412033;28;20099;-33
2023/06/17 23:57:45;;;;;;;4.10;3.25;;;31.30;45.10;;;;;;10412891;28;20093;-37
